• Join FlightAware (Why Join?)
  • Login
  • US Flag 
02:56PM EDT


 

Airport Tracker/Info


-or-


 

Live Flight TrackerFlight Track Log ✈ N911MN ✈ 19-Jun-2013 ✈ KFSD - KMIC

Flight Track Log - Related Links

Times and Time Zones

All times are in EDT time to prevent confusion due to time zone crossing. See the N911MN flight status page for this flight to view local times or setup timezone preferences in your user account.

Time Position Orientation Groundspeed Altitude Reporting Facility
EDT Latitude Longitude Course Direction KTS MPH feet Rate Location/Type
05:32AM 43.6794 -96.6642 58° Northeast 186 214 5,900  Level Minneapolis Center
05:34AM 43.7430 -96.5254 42° Northeast  Level FlightAware Approximate
05:41AM 44.0906 -96.1024 41° Northeast  Level FlightAware Approximate
05:42AM 44.1407 -96.0426 36° Northeast  Level FlightAware Approximate
05:43AM 44.1921 -95.9849 42° Northeast  Level FlightAware Approximate
05:44AM 44.2407 -95.9226 46° Northeast  Level FlightAware Approximate
05:45AM 44.2863 -95.8558 46° Northeast  Level FlightAware Approximate
05:46AM 44.3318 -95.7889 46° Northeast  Level FlightAware Approximate
05:47AM 44.3773 -95.7220 46° Northeast  Level FlightAware Approximate
05:48AM 44.4228 -95.6549 46° Northeast  Level FlightAware Approximate
05:49AM 44.4682 -95.5877 47° Northeast  Level FlightAware Approximate
05:50AM 44.5136 -95.5204 47° Northeast  Level FlightAware Approximate
05:51AM 44.5589 -95.4531 47° Northeast  Level FlightAware Approximate
05:52AM 44.5919 -95.3757 74° East  Level FlightAware Approximate
05:53AM 44.6105 -95.2867 74° East  Level FlightAware Approximate
05:54AM 44.6289 -95.1976 74° East  Level FlightAware Approximate
05:55AM 44.6474 -95.1084 74° East  Level FlightAware Approximate
05:56AM 44.6657 -95.0192 74° East  Level FlightAware Approximate
05:57AM 44.6839 -94.9299 77° East  Level FlightAware Approximate
05:58AM 44.6990 -94.8395 77° East  Level FlightAware Approximate
05:59AM 44.7194 -94.7511 72° East  Level FlightAware Approximate
06:00AM 44.7402 -94.6629 72° East  Level FlightAware Approximate
06:01AM 44.7609 -94.5746 72° East  Level FlightAware Approximate
06:02AM 44.7789 -94.4851 75° East  Level FlightAware Approximate
06:03AM 44.7958 -94.3951 75° East  Level FlightAware Approximate
06:04AM 44.8126 -94.3051 75° East  Level FlightAware Approximate
06:05AM 44.8333 -94.2167 71° East  Level FlightAware Approximate
06:06AM 44.8500 -94.1268 90° East  Level FlightAware Approximate
06:07AM 44.8805 -94.0456 59° Northeast  Level FlightAware Approximate
06:08AM 44.9163 -93.9674 55° Northeast  Level FlightAware Approximate
06:09AM 44.9462 -93.8842 63° Northeast  Level FlightAware Approximate
06:10AM 44.9760 -93.8009 63° Northeast  Level FlightAware Approximate
06:11AM 45.0062 -93.7179 60° Northeast  Level FlightAware Approximate
06:12AM 45.0388 -93.6366 60° Northeast  Level FlightAware Approximate
06:13AM 45.0706 -93.5547 65° Northeast  Level FlightAware Approximate
06:14AM 45.0955 -93.4697 60° Northeast  Level FlightAware Approximate
06:15AM 45.1265 -93.3872 65° Northeast  Level FlightAware Approximate
06:16AM 45.0853 -93.3500 180° South  Level FlightAware Approximate
06:17AM 45.0620 -93.3539 180° South  Level Estimated
06:18AM 45.0620 -93.3539 180° South  Level Estimated
06:19AM 45.0620 -93.3539 180° South  Level Estimated
06:20AM 45.0620 -93.3539 180° South  Level Estimated
06:21AM 45.0620 -93.3539 180° South  Level Estimated
06:22AM 45.0620 -93.3539 180° South  Level Estimated
06:23AM 45.0620 -93.3539 180° South  Level Estimated
06:24AM 45.0620 -93.3539 180° South  Level Estimated
06:25AM 45.0620 -93.3539 180° South  Level Estimated
06:26AM 45.0620 -93.3539 180° South  Level Estimated
06:27AM 45.0620 -93.3539 180° South  Level Estimated
06:28AM 45.0620 -93.3539 180° South  Level Estimated
06:29AM 45.0620 -93.3539 180° South  Level Estimated
06:30AM 45.0620 -93.3539 180° South  Level Estimated
06:31AM 45.0620 -93.3539 180° South  Level Estimated
06:32AM 45.0620 -93.3539 180° South  Level Estimated
06:33AM 45.0620 -93.3539 180° South  Level Estimated